sensor_id;sensor_type;location;lat;lon;timestamp;pressure;altitude;pressure_sealevel;temperature;humidity
56600;BME280;51832;48.152;11.530;2022-10-28T00:02:21;96379.75;;;17.88;60.92
56600;BME280;51832;48.152;11.530;2022-10-28T00:07:22;96371.94;;;17.82;60.35
56600;BME280;51832;48.152;11.530;2022-10-28T00:12:22;96385.81;;;17.84;59.72
56600;BME280;51832;48.152;11.530;2022-10-28T00:17:23;96375.25;;;17.72;58.72
56600;BME280;51832;48.152;11.530;2022-10-28T00:22:23;96374.78;;;17.75;57.80
56600;BME280;51832;48.152;11.530;2022-10-28T00:27:24;96366.28;;;17.78;56.86
56600;BME280;51832;48.152;11.530;2022-10-28T00:32:24;96378.31;;;17.64;56.73
56600;BME280;51832;48.152;11.530;2022-10-28T00:37:24;96367.34;;;17.44;56.16
56600;BME280;51832;48.152;11.530;2022-10-28T00:42:25;96349.41;;;17.22;55.72
56600;BME280;51832;48.152;11.530;2022-10-28T00:48:01;96365.47;;;17.61;54.70
56600;BME280;51832;48.152;11.530;2022-10-28T00:53:29;96365.56;;;17.49;55.39
56600;BME280;51832;48.152;11.530;2022-10-28T00:58:31;96357.59;;;17.66;54.78
56600;BME280;51832;48.152;11.530;2022-10-28T01:03:32;96355.91;;;17.77;54.43
56600;BME280;51832;48.152;11.530;2022-10-28T01:08:32;96363.31;;;17.58;55.04
56600;BME280;51832;48.152;11.530;2022-10-28T01:18:59;96343.88;;;17.74;54.25
56600;BME280;51832;48.152;11.530;2022-10-28T01:35:08;96338.44;;;17.86;52.65
56600;BME280;51832;48.152;11.530;2022-10-28T01:45:48;96326.63;;;17.77;51.39
56600;BME280;51832;48.152;11.530;2022-10-28T01:50:58;96350.00;;;17.74;50.79
56600;BME280;51832;48.152;11.530;2022-10-28T01:56:05;96349.09;;;17.86;50.69
56600;BME280;51832;48.152;11.530;2022-10-28T02:01:08;96340.69;;;17.94;49.66
56600;BME280;51832;48.152;11.530;2022-10-28T02:06:18;96334.63;;;17.98;49.49
56600;BME280;51832;48.152;11.530;2022-10-28T02:22:23;96335.44;;;18.21;50.07
56600;BME280;51832;48.152;11.530;2022-10-28T02:27:43;96341.88;;;18.25;49.34
56600;BME280;51832;48.152;11.530;2022-10-28T02:32:50;96336.19;;;18.16;48.63
56600;BME280;51832;48.152;11.530;2022-10-28T02:37:52;96339.06;;;17.93;49.88
56600;BME280;51832;48.152;11.530;2022-10-28T02:42:59;96331.50;;;17.85;52.75
56600;BME280;51832;48.152;11.530;2022-10-28T02:48:21;96323.38;;;17.74;53.56
56600;BME280;51832;48.152;11.530;2022-10-28T02:53:29;96325.25;;;17.74;54.08
56600;BME280;51832;48.152;11.530;2022-10-28T02:58:37;96314.59;;;17.74;54.05
56600;BME280;51832;48.152;11.530;2022-10-28T03:03:40;96326.78;;;17.70;54.22
56600;BME280;51832;48.152;11.530;2022-10-28T03:08:40;96324.69;;;17.94;65.72
56600;BME280;51832;48.152;11.530;2022-10-28T03:13:41;96324.44;;;18.83;63.05
56600;BME280;51832;48.152;11.530;2022-10-28T03:18:42;96324.16;;;19.11;55.78
56600;BME280;51832;48.152;11.530;2022-10-28T03:23:42;96323.72;;;19.24;55.07
56600;BME280;51832;48.152;11.530;2022-10-28T03:28:43;96327.91;;;19.47;57.31
56600;BME280;51832;48.152;11.530;2022-10-28T03:33:43;96328.78;;;20.00;55.97
56600;BME280;51832;48.152;11.530;2022-10-28T03:38:44;96317.97;;;19.42;50.05
56600;BME280;51832;48.152;11.530;2022-10-28T03:43:44;96321.38;;;18.74;51.86
56600;BME280;51832;48.152;11.530;2022-10-28T03:48:45;96320.69;;;18.35;53.06
56600;BME280;51832;48.152;11.530;2022-10-28T03:53:45;96312.59;;;18.03;54.08
56600;BME280;51832;48.152;11.530;2022-10-28T03:58:47;96330.22;;;17.87;54.90
56600;BME280;51832;48.152;11.530;2022-10-28T04:03:47;96335.13;;;17.79;55.40
56600;BME280;51832;48.152;11.530;2022-10-28T04:08:48;96326.59;;;17.60;55.69
56600;BME280;51832;48.152;11.530;2022-10-28T04:13:48;96325.72;;;17.54;54.89
56600;BME280;51832;48.152;11.530;2022-10-28T04:18:49;96325.97;;;17.36;56.28
56600;BME280;51832;48.152;11.530;2022-10-28T04:23:50;96322.00;;;17.38;56.74
56600;BME280;51832;48.152;11.530;2022-10-28T04:28:50;96326.28;;;17.39;56.55
56600;BME280;51832;48.152;11.530;2022-10-28T04:33:51;96315.75;;;17.45;56.55
56600;BME280;51832;48.152;11.530;2022-10-28T04:38:51;96319.22;;;17.45;56.66
56600;BME280;51832;48.152;11.530;2022-10-28T04:43:52;96319.22;;;17.28;56.71
56600;BME280;51832;48.152;11.530;2022-10-28T04:48:55;96324.09;;;17.36;56.61
56600;BME280;51832;48.152;11.530;2022-10-28T04:53:55;96324.06;;;17.31;56.89
56600;BME280;51832;48.152;11.530;2022-10-28T04:58:56;96325.91;;;17.31;57.03
56600;BME280;51832;48.152;11.530;2022-10-28T05:03:56;96310.41;;;17.28;57.47
56600;BME280;51832;48.152;11.530;2022-10-28T05:08:57;96313.88;;;17.28;57.44
56600;BME280;51832;48.152;11.530;2022-10-28T05:13:57;96321.25;;;17.21;57.36
56600;BME280;51832;48.152;11.530;2022-10-28T05:18:58;96310.66;;;17.26;56.73
56600;BME280;51832;48.152;11.530;2022-10-28T05:24:00;96303.81;;;17.30;56.35
56600;BME280;51832;48.152;11.530;2022-10-28T05:29:01;96304.19;;;17.22;56.81
56600;BME280;51832;48.152;11.530;2022-10-28T05:34:01;96299.31;;;17.14;56.36
56600;BME280;51832;48.152;11.530;2022-10-28T05:39:02;96301.16;;;16.80;55.89
56600;BME280;51832;48.152;11.530;2022-10-28T05:44:02;96302.50;;;16.54;55.01
56600;BME280;51832;48.152;11.530;2022-10-28T05:49:03;96308.03;;;17.82;67.66
56600;BME280;51832;48.152;11.530;2022-10-28T05:54:04;96301.50;;;18.11;59.99
56600;BME280;51832;48.152;11.530;2022-10-28T05:59:04;96309.28;;;17.74;51.70
56600;BME280;51832;48.152;11.530;2022-10-28T06:04:05;96312.50;;;17.98;54.86
56600;BME280;51832;48.152;11.530;2022-10-28T06:09:05;96326.19;;;17.85;52.27
56600;BME280;51832;48.152;11.530;2022-10-28T06:14:06;96337.41;;;17.87;52.10
56600;BME280;51832;48.152;11.530;2022-10-28T06:19:06;96341.44;;;17.56;54.02
56600;BME280;51832;48.152;11.530;2022-10-28T06:24:07;96340.31;;;17.52;55.17
56600;BME280;51832;48.152;11.530;2022-10-28T06:29:11;96329.19;;;17.55;55.03
56600;BME280;51832;48.152;11.530;2022-10-28T06:34:11;96341.22;;;17.74;54.77
56600;BME280;51832;48.152;11.530;2022-10-28T06:39:12;96336.13;;;17.72;55.25
56600;BME280;51832;48.152;11.530;2022-10-28T06:44:12;96331.75;;;17.83;54.78
56600;BME280;51832;48.152;11.530;2022-10-28T06:49:13;96332.19;;;17.97;54.02
56600;BME280;51832;48.152;11.530;2022-10-28T06:54:14;96334.53;;;17.93;53.23
56600;BME280;51832;48.152;11.530;2022-10-28T06:59:14;96340.69;;;17.94;53.75
56600;BME280;51832;48.152;11.530;2022-10-28T07:04:15;96341.88;;;18.25;52.55
56600;BME280;51832;48.152;11.530;2022-10-28T07:09:15;96353.22;;;18.59;51.26
56600;BME280;51832;48.152;11.530;2022-10-28T07:14:16;96351.91;;;18.83;51.88
56600;BME280;51832;48.152;11.530;2022-10-28T07:19:16;96362.31;;;19.11;50.95
56600;BME280;51832;48.152;11.530;2022-10-28T07:24:17;96367.06;;;19.41;49.76
56600;BME280;51832;48.152;11.530;2022-10-28T07:29:17;96382.16;;;19.52;47.70
56600;BME280;51832;48.152;11.530;2022-10-28T07:34:18;96388.50;;;19.83;48.92
56600;BME280;51832;48.152;11.530;2022-10-28T07:39:20;96382.31;;;19.73;49.85
56600;BME280;51832;48.152;11.530;2022-10-28T07:44:21;96389.75;;;20.08;48.96
56600;BME280;51832;48.152;11.530;2022-10-28T07:49:21;96390.91;;;20.27;47.60
56600;BME280;51832;48.152;11.530;2022-10-28T07:54:22;96381.47;;;20.67;46.77
56600;BME280;51832;48.152;11.530;2022-10-28T07:59:23;96380.28;;;21.20;44.75
56600;BME280;51832;48.152;11.530;2022-10-28T08:04:24;96390.22;;;21.35;44.25
56600;BME280;51832;48.152;11.530;2022-10-28T08:09:25;96381.66;;;21.68;43.94
56600;BME280;51832;48.152;11.530;2022-10-28T08:14:25;96382.72;;;21.97;43.17
56600;BME280;51832;48.152;11.530;2022-10-28T08:19:26;96383.72;;;22.32;41.77
56600;BME280;51832;48.152;11.530;2022-10-28T08:24:27;96378.31;;;22.42;40.75
56600;BME280;51832;48.152;11.530;2022-10-28T08:29:27;96385.84;;;22.35;41.10
56600;BME280;51832;48.152;11.530;2022-10-28T08:34:28;96371.91;;;22.33;41.22
56600;BME280;51832;48.152;11.530;2022-10-28T08:39:30;96373.28;;;22.20;41.07
56600;BME280;51832;48.152;11.530;2022-10-28T08:49:41;96366.31;;;22.24;39.57
56600;BME280;51832;48.152;11.530;2022-10-28T08:54:51;96375.41;;;22.28;39.42
56600;BME280;51832;48.152;11.530;2022-10-28T08:59:53;96368.94;;;22.40;38.88
56600;BME280;51832;48.152;11.530;2022-10-28T09:05:04;96379.41;;;22.36;38.91
56600;BME280;51832;48.152;11.530;2022-10-28T09:10:05;96394.88;;;22.59;38.57
56600;BME280;51832;48.152;11.530;2022-10-28T09:15:15;96384.41;;;22.63;37.95
56600;BME280;51832;48.152;11.530;2022-10-28T09:20:46;96380.59;;;22.69;37.35
56600;BME280;51832;48.152;11.530;2022-10-28T09:25:58;96376.91;;;22.60;37.88
56600;BME280;51832;48.152;11.530;2022-10-28T09:36:12;96373.75;;;22.43;37.75
56600;BME280;51832;48.152;11.530;2022-10-28T09:41:19;96374.47;;;22.68;37.48
56600;BME280;51832;48.152;11.530;2022-10-28T09:46:24;96373.75;;;23.07;35.53
56600;BME280;51832;48.152;11.530;2022-10-28T09:51:49;96373.31;;;23.29;34.75
56600;BME280;51832;48.152;11.530;2022-10-28T09:56:52;96369.78;;;23.33;34.54
56600;BME280;51832;48.152;11.530;2022-10-28T10:01:52;96369.53;;;23.69;35.10
56600;BME280;51832;48.152;11.530;2022-10-28T10:07:06;96371.44;;;23.92;35.66
56600;BME280;51832;48.152;11.530;2022-10-28T10:12:10;96371.53;;;24.40;34.53
56600;BME280;51832;48.152;11.530;2022-10-28T10:17:15;96366.38;;;24.86;34.53
56600;BME280;51832;48.152;11.530;2022-10-28T10:22:29;96363.75;;;24.81;34.99
56600;BME280;51832;48.152;11.530;2022-10-28T10:27:30;96367.50;;;24.14;34.43
56600;BME280;51832;48.152;11.530;2022-10-28T10:32:32;96364.03;;;24.37;33.92
56600;BME280;51832;48.152;11.530;2022-10-28T10:37:34;96356.66;;;25.09;33.19
56600;BME280;51832;48.152;11.530;2022-10-28T10:42:35;96362.19;;;24.75;34.05
56600;BME280;51832;48.152;11.530;2022-10-28T10:47:36;96359.69;;;25.02;33.59
56600;BME280;51832;48.152;11.530;2022-10-28T10:52:37;96355.19;;;25.17;32.89
56600;BME280;51832;48.152;11.530;2022-10-28T10:57:37;96350.00;;;25.39;32.77
56600;BME280;51832;48.152;11.530;2022-10-28T11:02:44;96343.34;;;25.69;31.81
56600;BME280;51832;48.152;11.530;2022-10-28T11:07:48;96343.47;;;25.77;31.67
56600;BME280;51832;48.152;11.530;2022-10-28T11:12:55;96333.16;;;25.66;30.98
56600;BME280;51832;48.152;11.530;2022-10-28T11:23:44;96315.56;;;26.28;29.82
56600;BME280;51832;48.152;11.530;2022-10-28T11:39:36;96300.81;;;26.75;28.29
56600;BME280;51832;48.152;11.530;2022-10-28T11:44:51;96293.72;;;27.15;28.10
56600;BME280;51832;48.152;11.530;2022-10-28T11:50:16;96297.84;;;27.57;27.99
56600;BME280;51832;48.152;11.530;2022-10-28T11:55:35;96291.19;;;27.94;27.55
56600;BME280;51832;48.152;11.530;2022-10-28T12:01:14;96288.28;;;28.79;26.79
56600;BME280;51832;48.152;11.530;2022-10-28T12:06:47;96287.44;;;29.56;26.34
56600;BME280;51832;48.152;11.530;2022-10-28T12:22:44;96277.50;;;30.24;25.87
56600;BME280;51832;48.152;11.530;2022-10-28T12:27:46;96272.38;;;30.52;25.55
56600;BME280;51832;48.152;11.530;2022-10-28T12:32:57;96267.00;;;30.14;26.37
56600;BME280;51832;48.152;11.530;2022-10-28T12:43:53;96252.28;;;30.94;26.74
56600;BME280;51832;48.152;11.530;2022-10-28T12:49:04;96252.38;;;30.86;25.63
56600;BME280;51832;48.152;11.530;2022-10-28T12:59:36;96261.91;;;30.42;24.50
56600;BME280;51832;48.152;11.530;2022-10-28T13:04:38;96253.78;;;30.62;24.03
56600;BME280;51832;48.152;11.530;2022-10-28T13:10:04;96256.94;;;30.73;24.54
56600;BME280;51832;48.152;11.530;2022-10-28T13:26:27;96249.66;;;31.85;23.34
56600;BME280;51832;48.152;11.530;2022-10-28T13:31:39;96249.09;;;32.15;22.22
56600;BME280;51832;48.152;11.530;2022-10-28T13:36:44;96252.63;;;32.77;22.83
56600;BME280;51832;48.152;11.530;2022-10-28T13:41:46;96241.84;;;33.96;21.74
56600;BME280;51832;48.152;11.530;2022-10-28T13:47:03;96246.25;;;35.21;19.06
56600;BME280;51832;48.152;11.530;2022-10-28T13:57:29;96242.69;;;38.21;16.43
56600;BME280;51832;48.152;11.530;2022-10-28T14:02:38;96243.13;;;37.83;16.55
56600;BME280;51832;48.152;11.530;2022-10-28T14:07:56;96239.84;;;38.62;15.24
56600;BME280;51832;48.152;11.530;2022-10-28T14:33:30;96250.72;;;42.54;12.31
56600;BME280;51832;48.152;11.530;2022-10-28T14:49:19;96236.22;;;41.88;12.61
56600;BME280;51832;48.152;11.530;2022-10-28T14:54:45;96242.09;;;41.97;12.84
56600;BME280;51832;48.152;11.530;2022-10-28T14:59:48;96245.91;;;42.17;15.75
56600;BME280;51832;48.152;11.530;2022-10-28T15:05:00;96250.03;;;41.26;17.87
56600;BME280;51832;48.152;11.530;2022-10-28T15:10:15;96252.03;;;41.14;18.35
56600;BME280;51832;48.152;11.530;2022-10-28T15:15:19;96242.31;;;40.57;19.86
56600;BME280;51832;48.152;11.530;2022-10-28T15:20:31;96238.31;;;39.69;19.94
56600;BME280;51832;48.152;11.530;2022-10-28T15:25:32;96243.41;;;38.69;19.80
56600;BME280;51832;48.152;11.530;2022-10-28T15:30:32;96240.31;;;37.76;20.35
56600;BME280;51832;48.152;11.530;2022-10-28T15:35:36;96242.34;;;35.41;23.38
56600;BME280;51832;48.152;11.530;2022-10-28T15:40:40;96231.00;;;34.15;24.39
56600;BME280;51832;48.152;11.530;2022-10-28T15:45:40;96240.78;;;33.13;26.14
56600;BME280;51832;48.152;11.530;2022-10-28T15:50:41;96237.09;;;31.92;28.54
56600;BME280;51832;48.152;11.530;2022-10-28T15:55:42;96235.06;;;31.11;29.50
56600;BME280;51832;48.152;11.530;2022-10-28T16:05:55;96226.66;;;29.57;32.18
56600;BME280;51832;48.152;11.530;2022-10-28T16:16:02;96233.28;;;28.70;33.86
56600;BME280;51832;48.152;11.530;2022-10-28T16:21:03;96236.28;;;28.42;34.51
56600;BME280;51832;48.152;11.530;2022-10-28T16:26:04;96236.50;;;28.80;33.87
56600;BME280;51832;48.152;11.530;2022-10-28T16:31:04;96243.44;;;28.47;34.22
56600;BME280;51832;48.152;11.530;2022-10-28T16:36:07;96238.19;;;28.02;35.92
56600;BME280;51832;48.152;11.530;2022-10-28T16:41:17;96243.91;;;28.40;35.60
56600;BME280;51832;48.152;11.530;2022-10-28T16:46:18;96237.19;;;27.89;37.02
56600;BME280;51832;48.152;11.530;2022-10-28T16:51:18;96234.13;;;27.43;37.32
56600;BME280;51832;48.152;11.530;2022-10-28T16:56:19;96230.19;;;27.27;37.70
56600;BME280;51832;48.152;11.530;2022-10-28T17:01:20;96238.34;;;27.04;38.04
56600;BME280;51832;48.152;11.530;2022-10-28T17:06:21;96241.84;;;26.55;39.01
56600;BME280;51832;48.152;11.530;2022-10-28T17:11:21;96238.59;;;26.44;39.69
56600;BME280;51832;48.152;11.530;2022-10-28T17:16:22;96249.03;;;26.10;40.25
56600;BME280;51832;48.152;11.530;2022-10-28T17:21:22;96249.13;;;25.91;40.66
56600;BME280;51832;48.152;11.530;2022-10-28T17:26:23;96252.09;;;25.76;40.91
56600;BME280;51832;48.152;11.530;2022-10-28T17:31:23;96240.44;;;25.80;40.80
56600;BME280;51832;48.152;11.530;2022-10-28T17:36:24;96256.19;;;26.28;40.43
56600;BME280;51832;48.152;11.530;2022-10-28T17:41:25;96257.28;;;26.00;40.57
56600;BME280;51832;48.152;11.530;2022-10-28T17:46:26;96261.09;;;25.99;41.29
56600;BME280;51832;48.152;11.530;2022-10-28T17:51:27;96237.56;;;25.58;42.13
56600;BME280;51832;48.152;11.530;2022-10-28T17:56:28;96237.59;;;25.12;43.33
56600;BME280;51832;48.152;11.530;2022-10-28T18:01:29;96249.16;;;25.59;42.86
56600;BME280;51832;48.152;11.530;2022-10-28T18:06:30;96231.66;;;25.42;43.06
56600;BME280;51832;48.152;11.530;2022-10-28T18:11:31;96249.19;;;24.94;44.82
56600;BME280;51832;48.152;11.530;2022-10-28T18:16:35;96256.50;;;24.88;45.47
56600;BME280;51832;48.152;11.530;2022-10-28T18:21:36;96257.16;;;24.80;46.00
56600;BME280;51832;48.152;11.530;2022-10-28T18:26:37;96246.13;;;24.44;46.90
56600;BME280;51832;48.152;11.530;2022-10-28T18:31:39;96250.31;;;24.50;46.61
56600;BME280;51832;48.152;11.530;2022-10-28T18:36:41;96266.47;;;24.50;47.25
56600;BME280;51832;48.152;11.530;2022-10-28T18:41:41;96263.41;;;24.38;47.34
56600;BME280;51832;48.152;11.530;2022-10-28T18:46:42;96271.91;;;24.21;47.09
56600;BME280;51832;48.152;11.530;2022-10-28T18:51:44;96255.63;;;24.13;46.25
56600;BME280;51832;48.152;11.530;2022-10-28T18:56:45;96246.09;;;24.01;45.81
56600;BME280;51832;48.152;11.530;2022-10-28T19:01:45;96249.34;;;23.98;46.33
56600;BME280;51832;48.152;11.530;2022-10-28T19:06:47;96269.13;;;24.07;46.18
56600;BME280;51832;48.152;11.530;2022-10-28T19:11:47;96249.81;;;23.58;46.12
56600;BME280;51832;48.152;11.530;2022-10-28T19:16:48;96264.59;;;23.55;45.73
56600;BME280;51832;48.152;11.530;2022-10-28T19:21:48;96273.81;;;23.44;48.32
56600;BME280;51832;48.152;11.530;2022-10-28T19:26:50;96262.19;;;22.91;51.15
56600;BME280;51832;48.152;11.530;2022-10-28T19:31:50;96296.69;;;22.63;53.28
56600;BME280;51832;48.152;11.530;2022-10-28T19:36:51;96284.09;;;22.59;55.20
56600;BME280;51832;48.152;11.530;2022-10-28T19:41:52;96276.72;;;22.85;54.94
56600;BME280;51832;48.152;11.530;2022-10-28T19:46:52;96274.81;;;22.85;55.38
56600;BME280;51832;48.152;11.530;2022-10-28T19:51:53;96273.81;;;22.71;55.95
56600;BME280;51832;48.152;11.530;2022-10-28T19:56:53;96288.13;;;23.00;55.20
56600;BME280;51832;48.152;11.530;2022-10-28T20:01:54;96273.63;;;23.01;55.04
56600;BME280;51832;48.152;11.530;2022-10-28T20:06:54;96289.63;;;23.17;54.42
56600;BME280;51832;48.152;11.530;2022-10-28T20:11:56;96277.03;;;23.12;55.07
56600;BME280;51832;48.152;11.530;2022-10-28T20:16:57;96275.09;;;22.84;56.08
56600;BME280;51832;48.152;11.530;2022-10-28T20:21:59;96271.72;;;22.63;56.24
56600;BME280;51832;48.152;11.530;2022-10-28T20:27:00;96277.16;;;22.53;56.75
56600;BME280;51832;48.152;11.530;2022-10-28T20:32:00;96265.47;;;22.28;56.19
56600;BME280;51832;48.152;11.530;2022-10-28T20:37:01;96259.16;;;22.09;56.02
56600;BME280;51832;48.152;11.530;2022-10-28T20:42:02;96288.31;;;22.16;55.25
56600;BME280;51832;48.152;11.530;2022-10-28T20:47:02;96275.91;;;22.35;53.68
56600;BME280;51832;48.152;11.530;2022-10-28T20:52:03;96288.44;;;22.50;52.86
56600;BME280;51832;48.152;11.530;2022-10-28T20:57:03;96288.19;;;22.46;51.72
56600;BME280;51832;48.152;11.530;2022-10-28T21:02:04;96280.47;;;22.34;51.17
56600;BME280;51832;48.152;11.530;2022-10-28T21:07:05;96270.69;;;22.05;51.00
56600;BME280;51832;48.152;11.530;2022-10-28T21:12:07;96281.88;;;22.17;50.27
56600;BME280;51832;48.152;11.530;2022-10-28T21:17:08;96273.41;;;21.79;50.99
56600;BME280;51832;48.152;11.530;2022-10-28T21:22:08;96265.38;;;21.74;50.65
56600;BME280;51832;48.152;11.530;2022-10-28T21:27:09;96262.97;;;21.83;49.88
56600;BME280;51832;48.152;11.530;2022-10-28T21:32:10;96268.66;;;21.56;50.33
56600;BME280;51832;48.152;11.530;2022-10-28T21:37:10;96285.56;;;21.41;50.35
56600;BME280;51832;48.152;11.530;2022-10-28T21:42:12;96258.94;;;21.80;48.72
56600;BME280;51832;48.152;11.530;2022-10-28T21:47:13;96278.28;;;21.67;48.98
56600;BME280;51832;48.152;11.530;2022-10-28T21:52:14;96287.88;;;21.83;48.49
56600;BME280;51832;48.152;11.530;2022-10-28T21:57:14;96281.69;;;21.98;48.25
56600;BME280;51832;48.152;11.530;2022-10-28T22:02:15;96270.25;;;21.62;48.76
56600;BME280;51832;48.152;11.530;2022-10-28T22:07:15;96281.44;;;21.74;48.71
56600;BME280;51832;48.152;11.530;2022-10-28T22:12:16;96271.03;;;21.62;48.09
56600;BME280;51832;48.152;11.530;2022-10-28T22:17:16;96252.63;;;21.36;48.38
56600;BME280;51832;48.152;11.530;2022-10-28T22:22:17;96263.56;;;21.54;47.00
56600;BME280;51832;48.152;11.530;2022-10-28T22:27:18;96272.13;;;21.51;47.19
56600;BME280;51832;48.152;11.530;2022-10-28T22:32:19;96261.47;;;21.31;46.89
56600;BME280;51832;48.152;11.530;2022-10-28T22:37:19;96276.97;;;21.44;46.44
56600;BME280;51832;48.152;11.530;2022-10-28T22:42:20;96271.03;;;21.68;45.69
56600;BME280;51832;48.152;11.530;2022-10-28T22:47:20;96284.47;;;21.57;45.95
56600;BME280;51832;48.152;11.530;2022-10-28T22:52:21;96274.28;;;21.34;45.91
56600;BME280;51832;48.152;11.530;2022-10-28T22:57:22;96265.19;;;21.40;45.45
56600;BME280;51832;48.152;11.530;2022-10-28T23:02:22;96271.88;;;21.58;45.66
56600;BME280;51832;48.152;11.530;2022-10-28T23:07:23;96253.13;;;21.48;45.32
56600;BME280;51832;48.152;11.530;2022-10-28T23:12:23;96271.09;;;21.32;45.84
56600;BME280;51832;48.152;11.530;2022-10-28T23:17:24;96260.09;;;21.13;45.71
56600;BME280;51832;48.152;11.530;2022-10-28T23:22:24;96263.03;;;21.07;45.37
56600;BME280;51832;48.152;11.530;2022-10-28T23:27:25;96262.25;;;21.21;45.37
56600;BME280;51832;48.152;11.530;2022-10-28T23:32:25;96273.50;;;21.34;45.35
56600;BME280;51832;48.152;11.530;2022-10-28T23:37:26;96275.91;;;21.45;45.16
56600;BME280;51832;48.152;11.530;2022-10-28T23:42:27;96274.84;;;21.41;45.23
56600;BME280;51832;48.152;11.530;2022-10-28T23:47:27;96276.44;;;21.37;45.37
56600;BME280;51832;48.152;11.530;2022-10-28T23:52:28;96269.75;;;21.19;45.77
56600;BME280;51832;48.152;11.530;2022-10-28T23:57:28;96268.41;;;21.02;46.59
